Woody Richerson — WDF9621 — position and weather

sailwx.info

Track history (hours):
 
Tides and Currents Weather Stations Pressure Air Temp Water Temp Dewpoint Dewpoint Depression Visibility Wind Speed Wind Dir Waves Ship Positions

Woody Richerson

Owner: Florida Marine, LLC, Mandeville, LA. More information available from US FCC via Universal Licensing System and Coast Guard Vessel Documentation Center.

Last reported at 2016-Jun-15 00:32 UTC. Time now 2016-Jun-27 20:27 UTC.
Position N 30°01' W 089°54'.
Warning: this ship's position is 12 days out of date.

Length 27 m.

Type: Other ship. MMSI: 367507070.

Date/timePositionNaut miles runAvg speedWind from/ knotsBaromVisibWave heightAir tempDewpointWater temp
2016-Jun-15 00:32N 30°01' W 089°54'5 5.4
2016-Jun-14 23:33N 29°60' W 090°00'0 0.2
2016-Jun-14 22:33N 29°60' W 090°01'0 0.0
2016-Jun-14 21:33N 29°60' W 090°01'0 0.0
2016-Jun-14 20:33N 29°60' W 090°01'2 2.4
2016-Jun-14 19:33N 29°58' W 090°02'2 0.5
2016-Jun-14 16:09N 29°56' W 090°00'0 0.0
2016-Jun-14 15:33N 29°56' W 090°00'0 0.0
2016-Jun-14 14:33N 29°56' W 090°00'0 0.0
2016-Jun-14 13:33N 29°56' W 090°00'0 0.0
2016-Jun-14 12:33N 29°56' W 090°00'0 0.0
2016-Jun-14 11:33N 29°56' W 090°00'0 0.0
2016-Jun-14 10:33N 29°56' W 090°00'0 0.0
2016-Jun-14 09:33N 29°56' W 090°00'0 0.0
2016-Jun-14 08:33N 29°56' W 090°00'0 0.0
2016-Jun-14 07:33N 29°56' W 090°00'0 0.0
2016-Jun-14 06:33N 29°56' W 090°00'0 0.0
2016-Jun-14 05:33N 29°56' W 090°00'0 0.0
2016-Jun-14 04:33N 29°56' W 090°00'0 0.0
2016-Jun-14 03:33N 29°56' W 090°00'0 0.0
2016-Jun-14 02:33N 29°56' W 090°00'0 0.0
2016-Jun-14 01:33N 29°56' W 090°00'0 0.1
2016-Jun-14 00:33N 29°56' W 090°00'0 0.1
2016-Jun-13 23:33N 29°56' W 090°00'0 0.1
2016-Jun-13 22:33N 29°56' W 090°00'5 5.3
2016-Jun-13 21:33N 29°55' W 090°06'  
2016-Jun-09 04:26N 29°57' W 090°14'3 3.8
2016-Jun-09 03:33N 29°57' W 090°10'4 4.3
2016-Jun-09 02:33N 29°55' W 090°06'4 3.6
2016-Jun-09 01:33N 29°57' W 090°03'0 0.2
2016-Jun-09 00:33N 29°58' W 090°02'1 0.7
2016-Jun-08 23:33N 29°58' W 090°02'0 0.2
2016-Jun-08 22:32N 29°58' W 090°02'0 0.5
2016-Jun-08 21:33N 29°59' W 090°01'0 0.0
2016-Jun-08 20:33N 29°59' W 090°01'2 0.2
2016-Jun-08 12:19N 29°60' W 090°00'0 0.0
2016-Jun-08 11:33N 29°60' W 090°00'0 0.0
2016-Jun-08 10:33N 29°60' W 090°00'0 0.0
2016-Jun-08 09:33N 29°60' W 090°00'1 0.8
2016-Jun-08 08:33N 29°60' W 089°59'  
Track history (hours):
 
Tides and Currents Weather Stations Pressure Air Temp Water Temp Dewpoint Dewpoint Depression Visibility Wind Speed Wind Dir Waves Ship Positions

Woody Richerson

Owner: Florida Marine, LLC, Mandeville, LA. More information available from US FCC via Universal Licensing System and Coast Guard Vessel Documentation Center.

Last reported at 2016-Jun-15 00:32 UTC. Time now 2016-Jun-27 20:27 UTC.
Position N 30°01' W 089°54'.
Warning: this ship's position is 12 days out of date.

Length 27 m.

Type: Other ship. MMSI: 367507070.

Date/timePositionNaut miles runAvg speedWind from/ knotsBaromVisibWave heightAir tempDewpointWater temp
2016-Jun-15 00:32N 30°01' W 089°54'5 5.4
2016-Jun-14 23:33N 29°60' W 090°00'0 0.2
2016-Jun-14 22:33N 29°60' W 090°01'0 0.0
2016-Jun-14 21:33N 29°60' W 090°01'0 0.0
2016-Jun-14 20:33N 29°60' W 090°01'2 2.4
2016-Jun-14 19:33N 29°58' W 090°02'2 0.5
2016-Jun-14 16:09N 29°56' W 090°00'0 0.0
2016-Jun-14 15:33N 29°56' W 090°00'0 0.0
2016-Jun-14 14:33N 29°56' W 090°00'0 0.0
2016-Jun-14 13:33N 29°56' W 090°00'0 0.0
2016-Jun-14 12:33N 29°56' W 090°00'0 0.0
2016-Jun-14 11:33N 29°56' W 090°00'0 0.0
2016-Jun-14 10:33N 29°56' W 090°00'0 0.0
2016-Jun-14 09:33N 29°56' W 090°00'0 0.0
2016-Jun-14 08:33N 29°56' W 090°00'0 0.0
2016-Jun-14 07:33N 29°56' W 090°00'0 0.0
2016-Jun-14 06:33N 29°56' W 090°00'0 0.0
2016-Jun-14 05:33N 29°56' W 090°00'0 0.0
2016-Jun-14 04:33N 29°56' W 090°00'0 0.0
2016-Jun-14 03:33N 29°56' W 090°00'0 0.0
2016-Jun-14 02:33N 29°56' W 090°00'0 0.0
2016-Jun-14 01:33N 29°56' W 090°00'0 0.1
2016-Jun-14 00:33N 29°56' W 090°00'0 0.1
2016-Jun-13 23:33N 29°56' W 090°00'0 0.1
2016-Jun-13 22:33N 29°56' W 090°00'5 5.3
2016-Jun-13 21:33N 29°55' W 090°06'  
2016-Jun-09 04:26N 29°57' W 090°14'3 3.8
2016-Jun-09 03:33N 29°57' W 090°10'4 4.3
2016-Jun-09 02:33N 29°55' W 090°06'4 3.6
2016-Jun-09 01:33N 29°57' W 090°03'0 0.2
2016-Jun-09 00:33N 29°58' W 090°02'1 0.7
2016-Jun-08 23:33N 29°58' W 090°02'0 0.2
2016-Jun-08 22:32N 29°58' W 090°02'0 0.5
2016-Jun-08 21:33N 29°59' W 090°01'0 0.0
2016-Jun-08 20:33N 29°59' W 090°01'2 0.2
2016-Jun-08 12:19N 29°60' W 090°00'0 0.0
2016-Jun-08 11:33N 29°60' W 090°00'0 0.0
2016-Jun-08 10:33N 29°60' W 090°00'0 0.0
2016-Jun-08 09:33N 29°60' W 090°00'1 0.8
2016-Jun-08 08:33N 29°60' W 089°59'  

Dump ship's entire track history